sensor_id;sensor_type;location;lat;lon;timestamp;P1;durP1;ratioP1;P2;durP2;ratioP2
44572;SDS011;31762;45.420;10.072;2023-11-18T00:00:40;5.70;;;5.15;;
44572;SDS011;31762;45.420;10.072;2023-11-18T00:05:42;6.75;;;4.90;;
44572;SDS011;31762;45.420;10.072;2023-11-18T00:10:44;5.63;;;4.80;;
44572;SDS011;31762;45.420;10.072;2023-11-18T00:15:47;6.28;;;4.85;;
44572;SDS011;31762;45.420;10.072;2023-11-18T00:20:49;5.10;;;4.60;;
44572;SDS011;31762;45.420;10.072;2023-11-18T00:25:52;4.70;;;4.18;;
44572;SDS011;31762;45.420;10.072;2023-11-18T00:30:54;5.40;;;5.00;;
44572;SDS011;31762;45.420;10.072;2023-11-18T00:35:57;5.82;;;4.90;;
44572;SDS011;31762;45.420;10.072;2023-11-18T00:40:59;5.78;;;4.93;;
44572;SDS011;31762;45.420;10.072;2023-11-18T00:46:01;5.65;;;4.70;;
44572;SDS011;31762;45.420;10.072;2023-11-18T00:51:04;7.28;;;6.57;;
44572;SDS011;31762;45.420;10.072;2023-11-18T00:56:07;6.22;;;5.40;;
44572;SDS011;31762;45.420;10.072;2023-11-18T01:01:10;5.13;;;4.72;;
44572;SDS011;31762;45.420;10.072;2023-11-18T01:06:12;5.03;;;4.57;;
44572;SDS011;31762;45.420;10.072;2023-11-18T01:11:17;5.75;;;5.25;;
44572;SDS011;31762;45.420;10.072;2023-11-18T01:16:20;5.05;;;4.55;;
44572;SDS011;31762;45.420;10.072;2023-11-18T01:21:22;5.18;;;4.78;;
44572;SDS011;31762;45.420;10.072;2023-11-18T01:26:24;5.82;;;4.63;;
44572;SDS011;31762;45.420;10.072;2023-11-18T01:31:26;8.45;;;5.65;;
44572;SDS011;31762;45.420;10.072;2023-11-18T01:36:40;5.10;;;4.65;;
44572;SDS011;31762;45.420;10.072;2023-11-18T01:41:42;6.80;;;5.57;;
44572;SDS011;31762;45.420;10.072;2023-11-18T01:46:44;4.93;;;4.53;;
44572;SDS011;31762;45.420;10.072;2023-11-18T01:51:47;6.40;;;5.15;;
44572;SDS011;31762;45.420;10.072;2023-11-18T01:56:49;4.90;;;4.50;;
44572;SDS011;31762;45.420;10.072;2023-11-18T02:01:52;4.78;;;4.38;;
44572;SDS011;31762;45.420;10.072;2023-11-18T02:06:55;5.97;;;5.43;;
44572;SDS011;31762;45.420;10.072;2023-11-18T02:12:00;5.25;;;4.75;;
44572;SDS011;31762;45.420;10.072;2023-11-18T02:17:02;6.32;;;5.13;;
44572;SDS011;31762;45.420;10.072;2023-11-18T02:22:06;4.70;;;4.17;;
44572;SDS011;31762;45.420;10.072;2023-11-18T02:27:09;5.00;;;4.53;;
44572;SDS011;31762;45.420;10.072;2023-11-18T02:32:23;5.10;;;4.60;;
44572;SDS011;31762;45.420;10.072;2023-11-18T02:37:27;5.20;;;4.70;;
44572;SDS011;31762;45.420;10.072;2023-11-18T02:42:30;6.38;;;4.45;;
44572;SDS011;31762;45.420;10.072;2023-11-18T02:47:33;4.88;;;4.40;;
44572;SDS011;31762;45.420;10.072;2023-11-18T02:52:35;6.15;;;4.97;;
44572;SDS011;31762;45.420;10.072;2023-11-18T02:57:38;4.63;;;4.22;;
44572;SDS011;31762;45.420;10.072;2023-11-18T03:02:40;4.60;;;4.20;;
44572;SDS011;31762;45.420;10.072;2023-11-18T03:07:42;7.53;;;4.57;;
44572;SDS011;31762;45.420;10.072;2023-11-18T03:12:45;5.22;;;4.43;;
44572;SDS011;31762;45.420;10.072;2023-11-18T03:17:50;5.13;;;4.63;;
44572;SDS011;31762;45.420;10.072;2023-11-18T03:22:53;5.72;;;4.65;;
44572;SDS011;31762;45.420;10.072;2023-11-18T03:27:56;5.32;;;4.53;;
44572;SDS011;31762;45.420;10.072;2023-11-18T03:32:58;4.90;;;4.40;;
44572;SDS011;31762;45.420;10.072;2023-11-18T03:38:00;5.25;;;4.60;;
44572;SDS011;31762;45.420;10.072;2023-11-18T03:43:02;6.72;;;4.43;;
44572;SDS011;31762;45.420;10.072;2023-11-18T03:48:04;4.95;;;4.22;;
44572;SDS011;31762;45.420;10.072;2023-11-18T03:53:07;4.00;;;3.70;;
44572;SDS011;31762;45.420;10.072;2023-11-18T03:58:09;5.25;;;3.72;;
44572;SDS011;31762;45.420;10.072;2023-11-18T04:03:11;4.68;;;4.05;;
44572;SDS011;31762;45.420;10.072;2023-11-18T04:08:13;4.45;;;4.05;;
44572;SDS011;31762;45.420;10.072;2023-11-18T04:13:16;4.50;;;3.83;;
44572;SDS011;31762;45.420;10.072;2023-11-18T04:18:18;4.90;;;4.10;;
44572;SDS011;31762;45.420;10.072;2023-11-18T04:23:20;5.28;;;3.78;;
44572;SDS011;31762;45.420;10.072;2023-11-18T04:28:22;3.78;;;3.47;;
44572;SDS011;31762;45.420;10.072;2023-11-18T04:33:25;6.20;;;3.80;;
44572;SDS011;31762;45.420;10.072;2023-11-18T04:38:27;4.72;;;3.72;;
44572;SDS011;31762;45.420;10.072;2023-11-18T04:43:29;3.92;;;3.60;;
44572;SDS011;31762;45.420;10.072;2023-11-18T04:48:45;3.97;;;3.67;;
44572;SDS011;31762;45.420;10.072;2023-11-18T04:53:47;3.78;;;3.42;;
44572;SDS011;31762;45.420;10.072;2023-11-18T04:58:49;5.43;;;4.03;;
44572;SDS011;31762;45.420;10.072;2023-11-18T05:03:52;3.92;;;3.60;;
44572;SDS011;31762;45.420;10.072;2023-11-18T05:08:54;4.05;;;3.58;;
44572;SDS011;31762;45.420;10.072;2023-11-18T05:13:56;3.85;;;3.45;;
44572;SDS011;31762;45.420;10.072;2023-11-18T05:18:59;4.47;;;4.07;;
44572;SDS011;31762;45.420;10.072;2023-11-18T05:24:01;5.30;;;3.92;;
44572;SDS011;31762;45.420;10.072;2023-11-18T05:29:03;4.43;;;3.90;;
44572;SDS011;31762;45.420;10.072;2023-11-18T05:34:05;6.75;;;4.28;;
44572;SDS011;31762;45.420;10.072;2023-11-18T05:39:07;3.95;;;3.55;;
44572;SDS011;31762;45.420;10.072;2023-11-18T05:44:10;5.63;;;4.03;;
44572;SDS011;31762;45.420;10.072;2023-11-18T05:49:12;4.95;;;4.53;;
44572;SDS011;31762;45.420;10.072;2023-11-18T05:54:14;8.68;;;4.45;;
44572;SDS011;31762;45.420;10.072;2023-11-18T05:59:17;4.65;;;4.25;;
44572;SDS011;31762;45.420;10.072;2023-11-18T06:04:19;7.70;;;4.75;;
44572;SDS011;31762;45.420;10.072;2023-11-18T06:09:21;5.50;;;5.00;;
44572;SDS011;31762;45.420;10.072;2023-11-18T06:14:24;8.43;;;5.35;;
44572;SDS011;31762;45.420;10.072;2023-11-18T06:19:26;6.35;;;5.35;;
44572;SDS011;31762;45.420;10.072;2023-11-18T06:24:28;5.28;;;4.78;;
44572;SDS011;31762;45.420;10.072;2023-11-18T06:29:30;5.85;;;5.28;;
44572;SDS011;31762;45.420;10.072;2023-11-18T06:34:32;6.28;;;4.97;;
44572;SDS011;31762;45.420;10.072;2023-11-18T06:39:35;8.05;;;4.82;;
44572;SDS011;31762;45.420;10.072;2023-11-18T06:44:37;8.05;;;5.40;;
44572;SDS011;31762;45.420;10.072;2023-11-18T06:49:39;6.63;;;5.63;;
44572;SDS011;31762;45.420;10.072;2023-11-18T06:54:42;6.95;;;5.72;;
44572;SDS011;31762;45.420;10.072;2023-11-18T06:59:44;6.43;;;4.82;;
44572;SDS011;31762;45.420;10.072;2023-11-18T07:04:46;7.43;;;4.95;;
44572;SDS011;31762;45.420;10.072;2023-11-18T07:09:48;7.35;;;5.00;;
44572;SDS011;31762;45.420;10.072;2023-11-18T07:14:52;5.93;;;5.10;;
44572;SDS011;31762;45.420;10.072;2023-11-18T07:19:55;5.85;;;4.80;;
44572;SDS011;31762;45.420;10.072;2023-11-18T07:24:57;7.70;;;5.18;;
44572;SDS011;31762;45.420;10.072;2023-11-18T07:30:02;9.52;;;5.30;;
44572;SDS011;31762;45.420;10.072;2023-11-18T07:35:05;5.32;;;4.60;;
44572;SDS011;31762;45.420;10.072;2023-11-18T07:40:07;6.13;;;5.10;;
44572;SDS011;31762;45.420;10.072;2023-11-18T07:45:09;6.13;;;5.53;;
44572;SDS011;31762;45.420;10.072;2023-11-18T07:50:11;5.85;;;5.18;;
44572;SDS011;31762;45.420;10.072;2023-11-18T07:55:14;6.22;;;4.78;;
44572;SDS011;31762;45.420;10.072;2023-11-18T08:00:16;6.32;;;5.00;;
44572;SDS011;31762;45.420;10.072;2023-11-18T08:05:18;7.88;;;5.57;;
44572;SDS011;31762;45.420;10.072;2023-11-18T08:10:21;7.22;;;5.63;;
44572;SDS011;31762;45.420;10.072;2023-11-18T08:15:23;8.27;;;6.32;;
44572;SDS011;31762;45.420;10.072;2023-11-18T08:20:25;6.10;;;5.55;;
44572;SDS011;31762;45.420;10.072;2023-11-18T08:25:27;7.35;;;5.30;;
44572;SDS011;31762;45.420;10.072;2023-11-18T08:30:30;10.00;;;5.32;;
44572;SDS011;31762;45.420;10.072;2023-11-18T08:35:32;7.10;;;5.90;;
44572;SDS011;31762;45.420;10.072;2023-11-18T08:40:34;8.90;;;5.70;;
44572;SDS011;31762;45.420;10.072;2023-11-18T08:45:36;7.20;;;5.63;;
44572;SDS011;31762;45.420;10.072;2023-11-18T08:50:39;6.32;;;5.40;;
44572;SDS011;31762;45.420;10.072;2023-11-18T08:55:41;6.55;;;5.50;;
44572;SDS011;31762;45.420;10.072;2023-11-18T09:00:45;6.65;;;5.72;;
44572;SDS011;31762;45.420;10.072;2023-11-18T09:05:48;6.68;;;4.82;;
44572;SDS011;31762;45.420;10.072;2023-11-18T09:10:50;8.05;;;4.97;;
44572;SDS011;31762;45.420;10.072;2023-11-18T09:15:53;5.78;;;4.78;;
44572;SDS011;31762;45.420;10.072;2023-11-18T09:20:55;5.22;;;4.72;;
44572;SDS011;31762;45.420;10.072;2023-11-18T09:25:57;7.18;;;5.47;;
44572;SDS011;31762;45.420;10.072;2023-11-18T09:31:00;5.65;;;5.07;;
44572;SDS011;31762;45.420;10.072;2023-11-18T09:36:03;8.23;;;5.95;;
44572;SDS011;31762;45.420;10.072;2023-11-18T09:41:07;6.17;;;4.97;;
44572;SDS011;31762;45.420;10.072;2023-11-18T09:46:09;7.33;;;4.50;;
44572;SDS011;31762;45.420;10.072;2023-11-18T09:51:14;6.45;;;5.85;;
44572;SDS011;31762;45.420;10.072;2023-11-18T09:56:30;6.00;;;5.40;;
44572;SDS011;31762;45.420;10.072;2023-11-18T10:01:34;5.68;;;4.35;;
44572;SDS011;31762;45.420;10.072;2023-11-18T10:06:37;6.38;;;4.90;;
44572;SDS011;31762;45.420;10.072;2023-11-18T10:11:39;5.55;;;4.95;;
44572;SDS011;31762;45.420;10.072;2023-11-18T10:16:42;6.38;;;4.65;;
44572;SDS011;31762;45.420;10.072;2023-11-18T10:21:45;5.43;;;4.20;;
44572;SDS011;31762;45.420;10.072;2023-11-18T10:26:56;5.38;;;4.80;;
44572;SDS011;31762;45.420;10.072;2023-11-18T10:32:05;4.97;;;4.35;;
44572;SDS011;31762;45.420;10.072;2023-11-18T10:37:08;4.60;;;3.85;;
44572;SDS011;31762;45.420;10.072;2023-11-18T10:42:11;5.38;;;4.43;;
44572;SDS011;31762;45.420;10.072;2023-11-18T10:47:13;6.45;;;4.13;;
44572;SDS011;31762;45.420;10.072;2023-11-18T10:52:15;4.97;;;4.47;;
44572;SDS011;31762;45.420;10.072;2023-11-18T10:57:18;4.30;;;4.00;;
44572;SDS011;31762;45.420;10.072;2023-11-18T11:02:20;6.60;;;4.63;;
44572;SDS011;31762;45.420;10.072;2023-11-18T11:07:23;4.13;;;3.38;;
44572;SDS011;31762;45.420;10.072;2023-11-18T11:12:25;4.43;;;3.85;;
44572;SDS011;31762;45.420;10.072;2023-11-18T11:17:30;4.43;;;4.03;;
44572;SDS011;31762;45.420;10.072;2023-11-18T11:22:36;4.23;;;3.83;;
44572;SDS011;31762;45.420;10.072;2023-11-18T11:28:15;3.63;;;3.10;;
44572;SDS011;31762;45.420;10.072;2023-11-18T11:33:12;4.15;;;3.47;;
44572;SDS011;31762;45.420;10.072;2023-11-18T11:38:15;3.58;;;3.28;;
44572;SDS011;31762;45.420;10.072;2023-11-18T11:43:18;3.60;;;3.20;;
44572;SDS011;31762;45.420;10.072;2023-11-18T11:48:20;3.65;;;3.35;;
44572;SDS011;31762;45.420;10.072;2023-11-18T11:53:24;3.63;;;3.13;;
44572;SDS011;31762;45.420;10.072;2023-11-18T11:58:31;5.57;;;3.78;;
44572;SDS011;31762;45.420;10.072;2023-11-18T12:03:40;3.55;;;3.17;;
44572;SDS011;31762;45.420;10.072;2023-11-18T12:08:45;3.30;;;3.05;;
44572;SDS011;31762;45.420;10.072;2023-11-18T12:14:01;5.75;;;3.33;;
44572;SDS011;31762;45.420;10.072;2023-11-18T12:24:26;4.82;;;3.40;;
44572;SDS011;31762;45.420;10.072;2023-11-18T12:29:32;3.20;;;2.78;;
44572;SDS011;31762;45.420;10.072;2023-11-18T12:34:50;2.97;;;2.67;;
44572;SDS011;31762;45.420;10.072;2023-11-18T12:50:13;3.88;;;2.78;;
44572;SDS011;31762;45.420;10.072;2023-11-18T12:55:16;3.17;;;2.87;;
44572;SDS011;31762;45.420;10.072;2023-11-18T13:00:19;2.75;;;2.42;;
44572;SDS011;31762;45.420;10.072;2023-11-18T13:05:25;2.40;;;2.20;;
44572;SDS011;31762;45.420;10.072;2023-11-18T13:10:28;2.33;;;2.05;;
44572;SDS011;31762;45.420;10.072;2023-11-18T13:15:30;3.63;;;2.38;;
44572;SDS011;31762;45.420;10.072;2023-11-18T13:20:33;2.95;;;2.65;;
44572;SDS011;31762;45.420;10.072;2023-11-18T13:25:35;2.80;;;2.60;;
44572;SDS011;31762;45.420;10.072;2023-11-18T13:30:37;2.83;;;2.50;;
44572;SDS011;31762;45.420;10.072;2023-11-18T13:35:41;2.40;;;2.20;;
44572;SDS011;31762;45.420;10.072;2023-11-18T13:40:47;2.65;;;2.45;;
44572;SDS011;31762;45.420;10.072;2023-11-18T13:45:50;2.63;;;2.15;;
44572;SDS011;31762;45.420;10.072;2023-11-18T13:50:53;3.43;;;2.10;;
44572;SDS011;31762;45.420;10.072;2023-11-18T13:55:55;2.47;;;2.25;;
44572;SDS011;31762;45.420;10.072;2023-11-18T14:00:57;2.20;;;2.00;;
44572;SDS011;31762;45.420;10.072;2023-11-18T14:06:01;3.23;;;2.00;;
44572;SDS011;31762;45.420;10.072;2023-11-18T14:11:03;3.30;;;2.30;;
44572;SDS011;31762;45.420;10.072;2023-11-18T14:16:11;2.90;;;2.25;;
44572;SDS011;31762;45.420;10.072;2023-11-18T14:21:14;2.58;;;2.35;;
44572;SDS011;31762;45.420;10.072;2023-11-18T14:26:17;2.17;;;1.98;;
44572;SDS011;31762;45.420;10.072;2023-11-18T14:31:19;2.70;;;2.33;;
44572;SDS011;31762;45.420;10.072;2023-11-18T14:36:21;3.25;;;2.40;;
44572;SDS011;31762;45.420;10.072;2023-11-18T14:41:24;2.15;;;1.70;;
44572;SDS011;31762;45.420;10.072;2023-11-18T14:46:30;5.80;;;3.13;;
44572;SDS011;31762;45.420;10.072;2023-11-18T14:51:33;2.58;;;1.80;;
44572;SDS011;31762;45.420;10.072;2023-11-18T14:56:35;2.67;;;2.15;;
44572;SDS011;31762;45.420;10.072;2023-11-18T15:01:38;3.40;;;2.40;;
44572;SDS011;31762;45.420;10.072;2023-11-18T15:06:40;6.65;;;3.05;;
44572;SDS011;31762;45.420;10.072;2023-11-18T15:11:42;6.15;;;2.40;;
44572;SDS011;31762;45.420;10.072;2023-11-18T15:16:44;6.50;;;3.28;;
44572;SDS011;31762;45.420;10.072;2023-11-18T15:21:47;5.05;;;3.40;;
44572;SDS011;31762;45.420;10.072;2023-11-18T15:26:49;4.10;;;3.58;;
44572;SDS011;31762;45.420;10.072;2023-11-18T15:31:52;5.15;;;3.78;;
44572;SDS011;31762;45.420;10.072;2023-11-18T15:36:54;5.07;;;3.78;;
44572;SDS011;31762;45.420;10.072;2023-11-18T15:41:57;5.47;;;3.83;;
44572;SDS011;31762;45.420;10.072;2023-11-18T15:46:59;6.20;;;4.00;;
44572;SDS011;31762;45.420;10.072;2023-11-18T15:52:02;5.68;;;4.45;;
44572;SDS011;31762;45.420;10.072;2023-11-18T15:57:04;5.38;;;4.60;;
44572;SDS011;31762;45.420;10.072;2023-11-18T16:02:06;5.68;;;4.07;;
44572;SDS011;31762;45.420;10.072;2023-11-18T16:07:08;5.15;;;3.85;;
44572;SDS011;31762;45.420;10.072;2023-11-18T16:12:10;7.13;;;4.05;;
44572;SDS011;31762;45.420;10.072;2023-11-18T16:17:13;7.13;;;5.05;;
44572;SDS011;31762;45.420;10.072;2023-11-18T16:22:15;7.28;;;4.90;;
44572;SDS011;31762;45.420;10.072;2023-11-18T16:27:17;6.13;;;4.70;;
44572;SDS011;31762;45.420;10.072;2023-11-18T16:32:19;6.65;;;4.40;;
44572;SDS011;31762;45.420;10.072;2023-11-18T16:37:22;8.65;;;5.43;;
44572;SDS011;31762;45.420;10.072;2023-11-18T16:42:24;6.93;;;4.68;;
44572;SDS011;31762;45.420;10.072;2023-11-18T16:47:26;8.93;;;5.47;;
44572;SDS011;31762;45.420;10.072;2023-11-18T16:52:28;10.63;;;6.13;;
44572;SDS011;31762;45.420;10.072;2023-11-18T16:57:31;11.48;;;6.68;;
44572;SDS011;31762;45.420;10.072;2023-11-18T17:02:33;10.40;;;7.28;;
44572;SDS011;31762;45.420;10.072;2023-11-18T17:07:36;11.77;;;7.20;;
44572;SDS011;31762;45.420;10.072;2023-11-18T17:12:38;8.48;;;7.18;;
44572;SDS011;31762;45.420;10.072;2023-11-18T17:17:41;9.40;;;7.82;;
44572;SDS011;31762;45.420;10.072;2023-11-18T17:22:44;8.23;;;7.43;;
44572;SDS011;31762;45.420;10.072;2023-11-18T17:27:46;12.20;;;9.88;;
44572;SDS011;31762;45.420;10.072;2023-11-18T17:32:49;10.27;;;8.38;;
44572;SDS011;31762;45.420;10.072;2023-11-18T17:37:51;10.73;;;9.48;;
44572;SDS011;31762;45.420;10.072;2023-11-18T17:42:53;11.77;;;9.88;;
44572;SDS011;31762;45.420;10.072;2023-11-18T17:47:56;11.30;;;10.18;;
44572;SDS011;31762;45.420;10.072;2023-11-18T17:52:58;13.18;;;11.27;;
44572;SDS011;31762;45.420;10.072;2023-11-18T17:58:00;14.52;;;11.77;;
44572;SDS011;31762;45.420;10.072;2023-11-18T18:03:03;13.65;;;12.35;;
44572;SDS011;31762;45.420;10.072;2023-11-18T18:08:05;15.25;;;13.65;;
44572;SDS011;31762;45.420;10.072;2023-11-18T18:13:08;16.27;;;14.43;;
44572;SDS011;31762;45.420;10.072;2023-11-18T18:18:10;16.60;;;14.85;;
44572;SDS011;31762;45.420;10.072;2023-11-18T18:23:12;16.88;;;14.68;;
44572;SDS011;31762;45.420;10.072;2023-11-18T18:28:14;17.20;;;14.82;;
44572;SDS011;31762;45.420;10.072;2023-11-18T18:33:17;18.33;;;16.50;;
44572;SDS011;31762;45.420;10.072;2023-11-18T18:38:19;22.63;;;19.10;;
44572;SDS011;31762;45.420;10.072;2023-11-18T18:43:21;23.23;;;20.92;;
44572;SDS011;31762;45.420;10.072;2023-11-18T18:48:23;21.38;;;19.10;;
44572;SDS011;31762;45.420;10.072;2023-11-18T18:53:26;23.73;;;20.85;;
44572;SDS011;31762;45.420;10.072;2023-11-18T18:58:28;25.83;;;21.23;;
44572;SDS011;31762;45.420;10.072;2023-11-18T19:03:30;23.70;;;20.77;;
44572;SDS011;31762;45.420;10.072;2023-11-18T19:08:32;23.33;;;20.85;;
44572;SDS011;31762;45.420;10.072;2023-11-18T19:13:35;23.83;;;21.40;;
44572;SDS011;31762;45.420;10.072;2023-11-18T19:18:37;22.75;;;20.45;;
44572;SDS011;31762;45.420;10.072;2023-11-18T19:23:39;22.33;;;20.08;;
44572;SDS011;31762;45.420;10.072;2023-11-18T19:28:41;21.33;;;19.13;;
44572;SDS011;31762;45.420;10.072;2023-11-18T19:33:44;18.25;;;16.50;;
44572;SDS011;31762;45.420;10.072;2023-11-18T19:38:46;18.50;;;16.38;;
44572;SDS011;31762;45.420;10.072;2023-11-18T19:43:48;27.60;;;19.02;;
44572;SDS011;31762;45.420;10.072;2023-11-18T19:48:50;21.00;;;18.80;;
44572;SDS011;31762;45.420;10.072;2023-11-18T19:53:53;22.13;;;19.00;;
44572;SDS011;31762;45.420;10.072;2023-11-18T19:58:55;18.77;;;16.85;;
44572;SDS011;31762;45.420;10.072;2023-11-18T20:03:57;18.73;;;17.02;;
44572;SDS011;31762;45.420;10.072;2023-11-18T20:08:59;20.60;;;17.88;;
44572;SDS011;31762;45.420;10.072;2023-11-18T20:14:02;17.67;;;15.95;;
44572;SDS011;31762;45.420;10.072;2023-11-18T20:19:04;20.00;;;17.65;;
44572;SDS011;31762;45.420;10.072;2023-11-18T20:24:06;20.00;;;15.90;;
44572;SDS011;31762;45.420;10.072;2023-11-18T20:29:09;18.77;;;16.88;;
44572;SDS011;31762;45.420;10.072;2023-11-18T20:34:11;21.20;;;16.25;;
44572;SDS011;31762;45.420;10.072;2023-11-18T20:39:15;19.70;;;17.15;;
44572;SDS011;31762;45.420;10.072;2023-11-18T20:44:17;18.83;;;16.98;;
44572;SDS011;31762;45.420;10.072;2023-11-18T20:49:19;16.67;;;14.98;;
44572;SDS011;31762;45.420;10.072;2023-11-18T20:54:22;16.80;;;14.93;;
44572;SDS011;31762;45.420;10.072;2023-11-18T20:59:24;17.50;;;15.70;;
44572;SDS011;31762;45.420;10.072;2023-11-18T21:04:26;15.55;;;14.05;;
44572;SDS011;31762;45.420;10.072;2023-11-18T21:09:29;17.15;;;15.57;;
44572;SDS011;31762;45.420;10.072;2023-11-18T21:14:31;15.23;;;13.43;;
44572;SDS011;31762;45.420;10.072;2023-11-18T21:19:33;16.15;;;14.45;;
44572;SDS011;31762;45.420;10.072;2023-11-18T21:24:36;17.92;;;13.63;;
44572;SDS011;31762;45.420;10.072;2023-11-18T21:29:38;14.35;;;12.93;;
44572;SDS011;31762;45.420;10.072;2023-11-18T21:34:40;16.42;;;14.73;;
44572;SDS011;31762;45.420;10.072;2023-11-18T21:39:42;15.25;;;13.65;;
44572;SDS011;31762;45.420;10.072;2023-11-18T21:44:45;14.52;;;13.07;;
44572;SDS011;31762;45.420;10.072;2023-11-18T21:49:47;14.82;;;13.05;;
44572;SDS011;31762;45.420;10.072;2023-11-18T21:54:53;14.38;;;12.98;;
44572;SDS011;31762;45.420;10.072;2023-11-18T21:59:55;14.82;;;13.32;;
44572;SDS011;31762;45.420;10.072;2023-11-18T22:04:57;13.95;;;12.65;;
44572;SDS011;31762;45.420;10.072;2023-11-18T22:10:00;13.82;;;12.32;;
44572;SDS011;31762;45.420;10.072;2023-11-18T22:15:02;16.83;;;13.45;;
44572;SDS011;31762;45.420;10.072;2023-11-18T22:20:07;15.68;;;14.07;;
44572;SDS011;31762;45.420;10.072;2023-11-18T22:25:10;14.52;;;13.05;;
44572;SDS011;31762;45.420;10.072;2023-11-18T22:30:12;13.75;;;12.38;;
44572;SDS011;31762;45.420;10.072;2023-11-18T22:35:15;14.38;;;13.10;;
44572;SDS011;31762;45.420;10.072;2023-11-18T22:40:17;14.60;;;13.10;;
44572;SDS011;31762;45.420;10.072;2023-11-18T22:45:19;15.25;;;12.75;;
44572;SDS011;31762;45.420;10.072;2023-11-18T22:50:21;12.80;;;11.60;;
44572;SDS011;31762;45.420;10.072;2023-11-18T22:55:24;13.30;;;11.25;;
44572;SDS011;31762;45.420;10.072;2023-11-18T23:00:27;12.32;;;11.15;;
44572;SDS011;31762;45.420;10.072;2023-11-18T23:05:29;13.63;;;11.90;;
44572;SDS011;31762;45.420;10.072;2023-11-18T23:10:31;13.38;;;11.52;;
44572;SDS011;31762;45.420;10.072;2023-11-18T23:15:34;12.95;;;11.65;;
44572;SDS011;31762;45.420;10.072;2023-11-18T23:20:36;14.10;;;11.32;;
44572;SDS011;31762;45.420;10.072;2023-11-18T23:25:39;13.45;;;12.23;;
44572;SDS011;31762;45.420;10.072;2023-11-18T23:30:41;13.65;;;11.77;;
44572;SDS011;31762;45.420;10.072;2023-11-18T23:35:44;13.27;;;12.02;;
44572;SDS011;31762;45.420;10.072;2023-11-18T23:40:46;12.23;;;10.98;;
44572;SDS011;31762;45.420;10.072;2023-11-18T23:45:49;12.07;;;10.98;;
44572;SDS011;31762;45.420;10.072;2023-11-18T23:50:51;12.13;;;10.88;;
44572;SDS011;31762;45.420;10.072;2023-11-18T23:55:53;13.27;;;11.82;;
